Time;durP1;ratioP1;P1;durP2;ratioP2;P2;SDS_P1;SDS_P2;PMS_P1;PMS_P2;Temp;Humidity;BMP_temperature;BMP_pressure;BME280_temperature;BME280_humidity;BME280_pressure;Samples;Min_cycle;Max_cycle;Signal;HPM_P1;HPM_P2
2022/08/21 00:00:49;;;;;;;8.45;2.78;;;;;;;;;;4982258;28;20060;-75
2022/08/21 00:03:17;;;;;;;6.00;2.85;;;;;;;;;;4977614;28;20130;-74
2022/08/21 00:05:49;;;;;;;6.18;2.47;;;;;;;;;;4984124;28;20086;-75
2022/08/21 00:08:17;;;;;;;9.98;2.92;;;;;;;;;;4983664;28;20051;-76
2022/08/21 00:10:45;;;;;;;9.32;2.78;;;;;;;;;;4975681;28;20059;-75
2022/08/21 00:13:12;;;;;;;6.47;2.63;;;;;;;;;;4984441;28;20039;-75
2022/08/21 00:15:44;;;;;;;8.40;3.10;;;;;;;;;;4989712;28;20131;-76
2022/08/21 00:18:12;;;;;;;9.60;3.05;;;;;;;;;;4984594;28;20057;-76
2022/08/21 00:20:43;;;;;;;8.60;2.78;;;;;;;;;;4978769;28;20054;-74
2022/08/21 00:23:11;;;;;;;10.45;2.85;;;;;;;;;;4983008;28;20058;-76
2022/08/21 00:25:39;;;;;;;5.78;2.85;;;;;;;;;;4981469;28;20082;-75
2022/08/21 00:28:06;;;;;;;12.15;2.88;;;;;;;;;;4981561;28;20087;-74
2022/08/21 00:30:33;;;;;;;7.82;2.92;;;;;;;;;;4977465;28;20059;-76
2022/08/21 00:33:01;;;;;;;6.55;3.10;;;;;;;;;;4977484;28;20059;-75
2022/08/21 00:35:32;;;;;;;7.15;3.40;;;;;;;;;;4981573;28;20051;-75
2022/08/21 00:37:59;;;;;;;10.45;3.13;;;;;;;;;;4979030;28;20047;-76
2022/08/21 00:40:29;;;;;;;6.35;2.70;;;;;;;;;;4979085;28;20046;-75
2022/08/21 00:42:56;;;;;;;7.70;3.50;;;;;;;;;;4984054;28;20055;-75
2022/08/21 00:45:23;;;;;;;6.18;3.67;;;;;;;;;;4979004;28;20057;-74
2022/08/21 00:47:54;;;;;;;11.07;3.25;;;;;;;;;;4979193;28;20059;-74
2022/08/21 00:50:22;;;;;;;7.45;3.15;;;;;;;;;;4974415;28;20498;-76
2022/08/21 00:52:52;;;;;;;7.55;3.17;;;;;;;;;;4977242;28;20142;-76
2022/08/21 00:55:21;;;;;;;7.95;3.35;;;;;;;;;;4983415;28;20063;-75
2022/08/21 00:57:51;;;;;;;8.13;3.53;;;;;;;;;;4982259;28;20082;-75
2022/08/21 01:00:21;;;;;;;11.38;3.30;;;;;;;;;;4977812;28;20055;-75
2022/08/21 01:02:49;;;;;;;13.07;3.80;;;;;;;;;;4975589;28;20106;-75
2022/08/21 01:05:16;;;;;;;8.63;3.28;;;;;;;;;;4974522;28;20150;-74
2022/08/21 01:07:44;;;;;;;7.78;3.40;;;;;;;;;;4978682;28;20061;-75
2022/08/21 01:10:12;;;;;;;6.05;3.70;;;;;;;;;;4974809;28;20057;-75
2022/08/21 01:12:51;;;;;;;18.75;3.83;;;;;;;;;;4976719;28;20505;-75
2022/08/21 01:15:20;;;;;;;7.30;3.50;;;;;;;;;;4976582;28;20131;-76
2022/08/21 01:17:48;;;;;;;10.27;4.03;;;;;;;;;;4980521;28;20055;-75
2022/08/21 01:20:16;;;;;;;7.82;3.67;;;;;;;;;;4975470;28;20055;-74
2022/08/21 01:22:43;;;;;;;8.43;3.45;;;;;;;;;;4974359;28;20051;-76
2022/08/21 01:25:14;;;;;;;8.90;3.70;;;;;;;;;;4984600;28;20054;-76
2022/08/21 01:27:42;;;;;;;6.40;3.70;;;;;;;;;;4983004;28;20053;-75
2022/08/21 01:30:12;;;;;;;12.50;3.35;;;;;;;;;;4977955;28;20876;-76
2022/08/21 01:32:39;;;;;;;8.13;3.30;;;;;;;;;;4980270;28;20085;-76
2022/08/21 01:35:07;;;;;;;8.48;3.42;;;;;;;;;;4979203;28;20104;-75
2022/08/21 01:37:34;;;;;;;6.40;3.40;;;;;;;;;;4977446;28;20047;-75
2022/08/21 01:40:02;;;;;;;8.95;3.28;;;;;;;;;;4978790;28;20051;-74
2022/08/21 01:42:29;;;;;;;7.95;3.55;;;;;;;;;;4977038;28;20051;-75
2022/08/21 01:44:57;;;;;;;7.90;3.47;;;;;;;;;;4973079;28;20047;-76
2022/08/21 01:47:24;;;;;;;11.63;3.35;;;;;;;;;;4972633;28;20087;-76
2022/08/21 01:49:52;;;;;;;8.35;2.90;;;;;;;;;;4981368;28;20043;-76
2022/08/21 01:52:20;;;;;;;8.73;3.60;;;;;;;;;;4976789;28;20055;-75
2022/08/21 01:54:47;;;;;;;6.07;3.30;;;;;;;;;;4975263;28;20057;-76
2022/08/21 01:57:22;;;;;;;6.45;3.63;;;;;;;;;;4980538;28;20054;-76
2022/08/21 01:59:52;;;;;;;6.53;3.15;;;;;;;;;;4976856;28;20047;-75
2022/08/21 02:02:19;;;;;;;6.28;3.17;;;;;;;;;;4986789;28;20276;-76
2022/08/21 02:04:47;;;;;;;6.95;3.10;;;;;;;;;;4981413;28;20506;-75
2022/08/21 02:07:14;;;;;;;6.65;2.92;;;;;;;;;;4980480;28;20054;-75
2022/08/21 02:09:42;;;;;;;7.90;3.00;;;;;;;;;;4983833;28;20914;-75
2022/08/21 02:12:10;;;;;;;7.97;3.00;;;;;;;;;;4988115;28;20070;-75
2022/08/21 02:14:38;;;;;;;7.38;2.90;;;;;;;;;;4976664;28;21121;-76
2022/08/21 02:17:05;;;;;;;6.45;2.72;;;;;;;;;;4984924;28;20062;-75
2022/08/21 02:19:36;;;;;;;12.07;3.53;;;;;;;;;;4983708;28;20058;-76
2022/08/21 02:22:10;;;;;;;13.38;3.35;;;;;;;;;;4989583;28;20058;-75
2022/08/21 02:24:39;;;;;;;12.05;4.03;;;;;;;;;;4981950;28;20055;-76
2022/08/21 02:27:21;;;;;;;10.80;3.42;;;;;;;;;;4979357;28;20058;-76
2022/08/21 02:29:52;;;;;;;6.22;3.20;;;;;;;;;;4980435;28;20792;-75
2022/08/21 02:32:21;;;;;;;9.35;3.58;;;;;;;;;;4983353;28;20055;-75
2022/08/21 02:34:48;;;;;;;10.88;3.60;;;;;;;;;;4984975;28;20054;-76
2022/08/21 02:37:16;;;;;;;10.38;4.13;;;;;;;;;;4978821;28;20079;-76
2022/08/21 02:39:43;;;;;;;6.68;3.75;;;;;;;;;;4979800;28;20134;-76
2022/08/21 02:42:10;;;;;;;8.57;3.72;;;;;;;;;;4986554;28;20054;-75
2022/08/21 02:44:37;;;;;;;12.30;3.90;;;;;;;;;;4983228;28;20786;-76
2022/08/21 02:47:05;;;;;;;8.60;4.28;;;;;;;;;;4983057;28;20533;-77
2022/08/21 02:49:32;;;;;;;9.95;4.72;;;;;;;;;;4975806;28;20054;-76
2022/08/21 02:51:59;;;;;;;10.73;4.82;;;;;;;;;;4983871;28;20051;-76
2022/08/21 02:54:26;;;;;;;9.05;4.82;;;;;;;;;;4973795;28;20051;-75
2022/08/21 02:56:53;;;;;;;10.57;4.88;;;;;;;;;;4979325;28;20058;-75
2022/08/21 02:59:20;;;;;;;9.75;5.30;;;;;;;;;;4986555;28;20070;-76
2022/08/21 03:01:48;;;;;;;11.27;4.95;;;;;;;;;;4981842;28;20183;-75
2022/08/21 03:04:15;;;;;;;13.15;4.50;;;;;;;;;;4984134;28;20056;-75
2022/08/21 03:06:43;;;;;;;11.25;5.05;;;;;;;;;;4979737;28;20134;-75
2022/08/21 03:09:10;;;;;;;12.45;5.30;;;;;;;;;;4978848;28;20051;-75
2022/08/21 03:11:38;;;;;;;13.02;5.38;;;;;;;;;;4989454;28;20055;-76
2022/08/21 03:14:05;;;;;;;9.00;4.72;;;;;;;;;;4977782;28;20063;-75
2022/08/21 03:16:32;;;;;;;11.93;4.65;;;;;;;;;;4978734;28;20055;-75
2022/08/21 03:19:03;;;;;;;13.02;5.07;;;;;;;;;;4979760;28;20133;-75
2022/08/21 03:21:30;;;;;;;11.90;4.60;;;;;;;;;;4992046;28;20134;-75
2022/08/21 03:23:57;;;;;;;8.02;4.45;;;;;;;;;;4983805;28;20046;-75
2022/08/21 03:26:25;;;;;;;9.20;4.32;;;;;;;;;;4985824;28;20051;-75
2022/08/21 03:28:54;;;;;;;10.00;5.35;;;;;;;;;;4977430;28;20055;-75
2022/08/21 03:31:21;;;;;;;7.70;4.60;;;;;;;;;;4986022;28;20050;-75
2022/08/21 03:33:50;;;;;;;14.40;5.18;;;;;;;;;;4986328;28;20054;-75
2022/08/21 03:36:17;;;;;;;15.02;5.10;;;;;;;;;;4983061;28;20058;-75
2022/08/21 03:38:45;;;;;;;17.35;5.28;;;;;;;;;;4982771;28;20047;-74
2022/08/21 03:41:12;;;;;;;12.88;5.53;;;;;;;;;;4991639;28;20038;-76
2022/08/21 03:43:39;;;;;;;16.80;5.75;;;;;;;;;;4982150;28;20047;-75
2022/08/21 03:46:07;;;;;;;15.18;6.28;;;;;;;;;;4982763;28;20061;-74
2022/08/21 03:48:36;;;;;;;12.25;6.35;;;;;;;;;;4983089;28;20058;-75
2022/08/21 03:51:04;;;;;;;12.52;5.65;;;;;;;;;;5002177;28;20145;-77
2022/08/21 03:53:31;;;;;;;16.38;6.32;;;;;;;;;;4980256;28;20817;-76
2022/08/21 03:55:58;;;;;;;16.58;6.20;;;;;;;;;;4979304;28;20126;-75
2022/08/21 03:58:27;;;;;;;10.90;6.07;;;;;;;;;;4982401;28;20052;-74
2022/08/21 04:00:56;;;;;;;15.98;6.63;;;;;;;;;;4988574;28;20833;-76
2022/08/21 04:03:24;;;;;;;11.48;6.15;;;;;;;;;;4989832;28;20170;-74
2022/08/21 04:05:51;;;;;;;13.63;6.63;;;;;;;;;;4988287;28;20115;-74
2022/08/21 04:08:19;;;;;;;11.40;5.70;;;;;;;;;;4979566;28;20138;-75
2022/08/21 04:10:48;;;;;;;14.00;5.97;;;;;;;;;;4980382;28;20089;-77
2022/08/21 04:13:15;;;;;;;11.73;5.63;;;;;;;;;;4981377;28;20047;-76
2022/08/21 04:15:43;;;;;;;15.85;5.78;;;;;;;;;;4981818;28;20058;-76
2022/08/21 04:18:10;;;;;;;12.45;5.85;;;;;;;;;;4974782;28;20055;-76
2022/08/21 04:20:37;;;;;;;12.80;5.50;;;;;;;;;;4975183;28;20058;-76
2022/08/21 04:23:04;;;;;;;12.25;5.88;;;;;;;;;;4990002;28;20094;-75
2022/08/21 04:25:31;;;;;;;17.60;6.07;;;;;;;;;;4991311;28;20039;-77
2022/08/21 04:27:59;;;;;;;18.00;6.82;;;;;;;;;;4975959;28;20085;-76
2022/08/21 04:30:26;;;;;;;13.73;6.18;;;;;;;;;;4985442;28;20039;-75
2022/08/21 04:32:56;;;;;;;11.82;5.82;;;;;;;;;;4981544;28;20600;-75
2022/08/21 04:35:24;;;;;;;12.80;6.32;;;;;;;;;;4988192;28;20903;-76
2022/08/21 04:37:52;;;;;;;13.40;6.32;;;;;;;;;;4985810;28;20047;-75
2022/08/21 04:40:21;;;;;;;22.45;7.07;;;;;;;;;;4983617;28;20062;-75
2022/08/21 04:42:50;;;;;;;17.13;6.80;;;;;;;;;;4983109;28;20098;-76
2022/08/21 04:45:36;;;;;;;14.18;6.35;;;;;;;;;;4978141;28;20134;-76
2022/08/21 04:48:05;;;;;;;13.80;6.30;;;;;;;;;;4982256;28;20055;-77
2022/08/21 04:50:45;;;;;;;15.35;7.05;;;;;;;;;;4986702;28;20855;-77
2022/08/21 04:53:14;;;;;;;16.63;7.22;;;;;;;;;;4986057;28;20146;-75
2022/08/21 04:55:43;;;;;;;17.40;7.10;;;;;;;;;;4984469;28;20059;-77
2022/08/21 04:58:12;;;;;;;18.77;7.35;;;;;;;;;;4981465;28;20049;-75
2022/08/21 05:00:40;;;;;;;16.50;7.00;;;;;;;;;;4981703;28;20055;-77
2022/08/21 05:03:08;;;;;;;14.10;7.07;;;;;;;;;;4980505;28;20147;-77
2022/08/21 05:05:35;;;;;;;15.50;6.65;;;;;;;;;;4983806;28;20048;-76
2022/08/21 05:08:03;;;;;;;13.43;7.05;;;;;;;;;;4979180;28;20082;-76
2022/08/21 05:10:32;;;;;;;16.80;6.93;;;;;;;;;;4977583;28;20043;-75
2022/08/21 05:13:00;;;;;;;14.93;6.65;;;;;;;;;;4985339;28;20054;-76
2022/08/21 05:15:28;;;;;;;12.90;6.72;;;;;;;;;;4986017;28;20109;-75
2022/08/21 05:17:55;;;;;;;11.32;5.38;;;;;;;;;;4977947;28;20060;-76
2022/08/21 05:20:28;;;;;;;13.30;5.47;;;;;;;;;;4986817;28;20055;-75
2022/08/21 05:22:57;;;;;;;13.93;5.72;;;;;;;;;;4974989;28;20054;-76
2022/08/21 05:25:25;;;;;;;15.40;5.70;;;;;;;;;;4984091;28;20051;-75
2022/08/21 05:27:54;;;;;;;15.35;5.93;;;;;;;;;;4983155;28;20063;-76
2022/08/21 05:30:24;;;;;;;13.15;6.40;;;;;;;;;;4984112;28;20059;-76
2022/08/21 05:32:56;;;;;;;14.63;6.25;;;;;;;;;;4986694;28;20045;-77
2022/08/21 05:35:25;;;;;;;14.18;6.55;;;;;;;;;;4997322;28;20121;-78
2022/08/21 05:37:52;;;;;;;20.58;7.75;;;;;;;;;;4991858;28;20044;-78
2022/08/21 05:40:19;;;;;;;14.93;7.30;;;;;;;;;;4989333;28;20134;-77
2022/08/21 05:42:53;;;;;;;17.05;7.35;;;;;;;;;;4983186;28;20050;-76
2022/08/21 05:45:26;;;;;;;15.73;7.65;;;;;;;;;;4980366;28;20051;-75
2022/08/21 05:48:12;;;;;;;18.05;7.30;;;;;;;;;;4986116;28;20151;-77
2022/08/21 05:50:40;;;;;;;16.10;7.43;;;;;;;;;;4982474;28;20093;-76
2022/08/21 05:53:09;;;;;;;18.73;8.07;;;;;;;;;;4979138;28;20525;-77
2022/08/21 05:55:36;;;;;;;19.52;8.80;;;;;;;;;;4983592;28;20882;-76
2022/08/21 05:58:11;;;;;;;21.15;8.75;;;;;;;;;;4984457;28;20061;-77
2022/08/21 06:00:39;;;;;;;14.45;7.72;;;;;;;;;;4986942;28;20134;-75
2022/08/21 06:03:10;;;;;;;15.45;7.57;;;;;;;;;;4983426;28;20038;-76
2022/08/21 06:05:37;;;;;;;17.83;7.80;;;;;;;;;;4996588;28;20043;-77
2022/08/21 06:08:05;;;;;;;19.90;8.15;;;;;;;;;;4981734;28;20781;-76
2022/08/21 06:10:32;;;;;;;20.65;8.07;;;;;;;;;;4987602;28;20054;-76
2022/08/21 06:12:59;;;;;;;19.60;8.13;;;;;;;;;;4982120;28;20050;-77
2022/08/21 06:15:27;;;;;;;23.60;8.52;;;;;;;;;;4985854;28;20555;-76
2022/08/21 06:17:55;;;;;;;16.42;7.05;;;;;;;;;;4980330;28;20057;-77
2022/08/21 06:20:23;;;;;;;25.30;7.30;;;;;;;;;;4982931;28;20106;-76
2022/08/21 06:22:50;;;;;;;19.60;7.15;;;;;;;;;;4978791;28;20051;-75
2022/08/21 06:25:18;;;;;;;19.38;7.45;;;;;;;;;;4977818;28;20158;-75
2022/08/21 06:27:45;;;;;;;19.80;7.13;;;;;;;;;;4977465;28;20055;-75
2022/08/21 06:30:13;;;;;;;12.50;7.00;;;;;;;;;;4979597;28;20047;-76
2022/08/21 06:32:40;;;;;;;21.25;7.07;;;;;;;;;;4975828;28;20148;-76
2022/08/21 06:35:08;;;;;;;20.15;7.03;;;;;;;;;;4991693;28;20058;-75
2022/08/21 06:37:35;;;;;;;16.75;7.05;;;;;;;;;;4985680;28;20176;-75
2022/08/21 06:40:04;;;;;;;15.35;5.93;;;;;;;;;;4969600;28;20050;-75
2022/08/21 06:42:38;;;;;;;17.45;7.20;;;;;;;;;;4975378;28;20090;-75
2022/08/21 06:45:07;;;;;;;18.80;6.10;;;;;;;;;;4980088;28;20134;-76
2022/08/21 06:47:34;;;;;;;13.07;5.80;;;;;;;;;;4987396;28;20899;-78
2022/08/21 06:50:02;;;;;;;16.77;6.40;;;;;;;;;;4987622;28;20078;-76
2022/08/21 06:52:30;;;;;;;18.67;5.75;;;;;;;;;;4991241;28;20173;-76
2022/08/21 06:54:57;;;;;;;17.88;5.85;;;;;;;;;;4976453;28;20110;-77
2022/08/21 06:57:25;;;;;;;15.70;5.78;;;;;;;;;;4984138;28;20051;-76
2022/08/21 06:59:52;;;;;;;14.13;5.85;;;;;;;;;;4985291;28;20895;-75
2022/08/21 07:02:20;;;;;;;14.10;5.68;;;;;;;;;;4984913;28;20149;-76
2022/08/21 07:04:47;;;;;;;15.30;5.65;;;;;;;;;;4978446;28;20054;-75
2022/08/21 07:07:15;;;;;;;15.82;5.15;;;;;;;;;;4986008;28;20043;-76
2022/08/21 07:09:42;;;;;;;11.68;5.00;;;;;;;;;;4982389;28;20051;-76
2022/08/21 07:12:10;;;;;;;18.67;5.07;;;;;;;;;;4981356;28;20047;-76
2022/08/21 07:14:37;;;;;;;17.77;5.28;;;;;;;;;;4974793;28;20055;-77
2022/08/21 07:17:05;;;;;;;16.08;4.68;;;;;;;;;;4978047;28;20059;-77
2022/08/21 07:19:32;;;;;;;13.68;4.60;;;;;;;;;;4975995;28;20053;-76
2022/08/21 07:22:01;;;;;;;14.38;4.65;;;;;;;;;;4978942;28;20078;-77
2022/08/21 07:24:29;;;;;;;14.18;4.88;;;;;;;;;;4977383;28;20050;-76
2022/08/21 07:26:56;;;;;;;17.00;4.80;;;;;;;;;;4972653;28;20055;-76
2022/08/21 07:29:24;;;;;;;19.48;4.57;;;;;;;;;;4974813;28;20048;-77
2022/08/21 07:31:51;;;;;;;18.67;4.30;;;;;;;;;;4974682;28;20047;-77
2022/08/21 07:34:18;;;;;;;19.48;5.43;;;;;;;;;;4974851;28;20066;-77
2022/08/21 07:36:46;;;;;;;14.88;4.70;;;;;;;;;;4981933;28;20050;-78
2022/08/21 07:39:15;;;;;;;11.88;4.47;;;;;;;;;;4975775;28;20058;-75
2022/08/21 07:41:43;;;;;;;13.18;4.68;;;;;;;;;;4980041;28;20050;-76
2022/08/21 07:44:10;;;;;;;10.25;4.05;;;;;;;;;;4974933;28;20055;-77
2022/08/21 07:46:38;;;;;;;20.95;4.25;;;;;;;;;;4972292;28;20078;-77
2022/08/21 07:49:05;;;;;;;15.82;4.53;;;;;;;;;;4976043;28;20062;-77
2022/08/21 07:51:33;;;;;;;13.48;4.43;;;;;;;;;;4975124;28;20055;-77
2022/08/21 07:54:01;;;;;;;18.58;4.65;;;;;;;;;;4980320;28;20047;-77
2022/08/21 07:56:29;;;;;;;17.33;4.68;;;;;;;;;;4977276;28;20055;-76
2022/08/21 07:58:57;;;;;;;13.90;4.18;;;;;;;;;;4979858;28;20903;-77
2022/08/21 08:01:24;;;;;;;17.48;3.95;;;;;;;;;;4972103;28;20555;-77
2022/08/21 08:03:52;;;;;;;22.73;4.97;;;;;;;;;;4978049;28;20047;-77
2022/08/21 08:06:19;;;;;;;15.98;3.72;;;;;;;;;;4977782;28;20056;-77
2022/08/21 08:08:47;;;;;;;15.82;4.30;;;;;;;;;;4980948;28;20047;-77
2022/08/21 08:11:15;;;;;;;11.13;3.97;;;;;;;;;;4981194;28;20126;-76
2022/08/21 08:13:47;;;;;;;13.60;4.13;;;;;;;;;;4983301;28;20062;-77
2022/08/21 08:16:14;;;;;;;11.95;3.63;;;;;;;;;;4981588;28;20075;-76
2022/08/21 08:18:41;;;;;;;15.15;4.45;;;;;;;;;;4983874;28;20059;-76
2022/08/21 08:21:10;;;;;;;15.18;3.90;;;;;;;;;;4975059;28;20055;-77
2022/08/21 08:23:38;;;;;;;15.85;3.95;;;;;;;;;;4975864;28;20729;-76
2022/08/21 08:26:05;;;;;;;11.88;4.00;;;;;;;;;;4975569;28;20059;-77
2022/08/21 08:28:33;;;;;;;13.65;3.92;;;;;;;;;;4975086;28;20051;-78
2022/08/21 08:31:00;;;;;;;15.95;4.13;;;;;;;;;;4979008;28;20517;-77
2022/08/21 08:33:28;;;;;;;11.73;3.55;;;;;;;;;;4976446;28;20051;-77
2022/08/21 08:35:55;;;;;;;12.57;4.05;;;;;;;;;;4975030;28;20060;-78
2022/08/21 08:38:24;;;;;;;16.15;3.90;;;;;;;;;;4974093;28;20055;-77
2022/08/21 08:41:02;;;;;;;15.63;3.92;;;;;;;;;;4973395;28;20101;-76
2022/08/21 08:43:30;;;;;;;12.18;3.47;;;;;;;;;;4980234;28;20055;-78
2022/08/21 08:45:58;;;;;;;15.55;3.63;;;;;;;;;;4981477;28;20051;-77
2022/08/21 08:48:31;;;;;;;13.30;3.50;;;;;;;;;;4976153;28;20065;-78
2022/08/21 08:50:58;;;;;;;;;;;;;;;;;;4982322;28;20047;-75
2022/08/21 08:53:29;;;;;;;14.65;3.60;;;;;;;;;;4975591;28;46664;-78
2022/08/21 08:55:57;;;;;;;13.40;3.45;;;;;;;;;;4973082;28;20141;-78
2022/08/21 08:58:26;;;;;;;11.38;3.40;;;;;;;;;;4980265;28;20086;-78
2022/08/21 09:00:54;;;;;;;8.50;3.10;;;;;;;;;;4982361;28;20843;-79
2022/08/21 09:03:26;;;;;;;14.90;3.50;;;;;;;;;;4974332;28;20139;-79
2022/08/21 09:06:11;;;;;;;11.38;3.05;;;;;;;;;;4984927;28;20062;-78
2022/08/21 09:08:57;;;;;;;13.27;3.55;;;;;;;;;;4976005;28;20129;-77
2022/08/21 09:11:31;;;;;;;14.88;3.42;;;;;;;;;;4979924;28;20047;-78
2022/08/21 09:14:17;;;;;;;14.82;3.53;;;;;;;;;;4982239;28;20054;-78
2022/08/21 09:16:44;;;;;;;14.93;3.05;;;;;;;;;;4979170;28;20105;-77
2022/08/21 09:19:31;;;;;;;11.82;3.38;;;;;;;;;;4977624;28;20055;-76
2022/08/21 09:22:04;;;;;;;19.38;3.50;;;;;;;;;;4969990;28;20051;-77
2022/08/21 09:24:43;;;;;;;13.70;3.35;;;;;;;;;;4978752;28;20049;-78
2022/08/21 09:27:14;;;;;;;;;;;;;;;;;;4979456;28;20086;-78
2022/08/21 09:29:47;;;;;;;15.07;3.10;;;;;;;;;;4976211;28;43426;-76
2022/08/21 09:32:25;;;;;;;13.10;3.22;;;;;;;;;;4977493;28;20134;-77
2022/08/21 09:35:03;;;;;;;13.70;3.30;;;;;;;;;;4971802;28;20054;-78
2022/08/21 09:37:51;;;;;;;9.77;2.92;;;;;;;;;;4975202;28;20058;-77
2022/08/21 09:40:35;;;;;;;13.02;2.70;;;;;;;;;;4990337;28;20768;-79
2022/08/21 09:43:05;;;;;;;14.80;3.42;;;;;;;;;;4976971;28;20051;-77
2022/08/21 09:45:37;;;;;;;13.90;2.90;;;;;;;;;;4980184;28;20051;-79
2022/08/21 09:48:20;;;;;;;11.82;2.85;;;;;;;;;;4977626;28;20063;-78
2022/08/21 09:50:48;;;;;;;7.72;2.55;;;;;;;;;;4982091;28;20058;-78
2022/08/21 09:53:24;;;;;;;13.18;2.80;;;;;;;;;;4978086;28;20051;-77
2022/08/21 09:58:44;;;;;;;12.38;3.13;;;;;;;;;;4980065;28;20051;-78
2022/08/21 10:01:17;;;;;;;15.27;2.78;;;;;;;;;;4977422;28;20116;-79
2022/08/21 10:03:48;;;;;;;16.25;3.97;;;;;;;;;;4973563;28;20055;-77
2022/08/21 10:06:26;;;;;;;9.20;2.53;;;;;;;;;;4976922;28;20059;-76
2022/08/21 10:09:14;;;;;;;10.15;2.40;;;;;;;;;;4979187;28;20686;-77
2022/08/21 10:11:59;;;;;;;8.07;2.30;;;;;;;;;;4975661;28;20058;-78
2022/08/21 10:14:35;;;;;;;12.70;2.75;;;;;;;;;;4979864;28;20804;-77
2022/08/21 10:17:10;;;;;;;11.00;2.33;;;;;;;;;;4976558;28;20473;-78
2022/08/21 10:19:46;;;;;;;11.25;2.28;;;;;;;;;;4977345;28;20051;-78
2022/08/21 10:22:39;;;;;;;10.10;2.60;;;;;;;;;;4981901;28;20046;-77
2022/08/21 10:25:06;;;;;;;;;;;;;;;;;;4973648;28;20059;-77
2022/08/21 10:27:52;;;;;;;7.63;2.25;;;;;;;;;;4980114;28;45492;-79
2022/08/21 10:30:19;;;;;;;13.18;2.05;;;;;;;;;;4979407;28;20094;-77
2022/08/21 10:32:53;;;;;;;8.77;2.17;;;;;;;;;;4985196;28;20047;-79
2022/08/21 10:35:30;;;;;;;10.68;2.22;;;;;;;;;;4980996;28;20050;-79
2022/08/21 10:38:16;;;;;;;9.57;2.00;;;;;;;;;;4974934;28;20153;-78
2022/08/21 10:41:10;;;;;;;7.10;1.77;;;;;;;;;;4973699;28;20055;-77
2022/08/21 10:43:50;;;;;;;9.60;2.20;;;;;;;;;;5000271;28;20509;-79
2022/08/21 10:46:33;;;;;;;9.88;2.60;;;;;;;;;;4981982;28;20059;-78
2022/08/21 10:49:20;;;;;;;8.88;2.35;;;;;;;;;;4981672;28;20054;-78
2022/08/21 10:51:56;;;;;;;9.90;2.00;;;;;;;;;;4981905;28;20545;-78
2022/08/21 10:54:32;;;;;;;10.25;2.20;;;;;;;;;;4990701;28;20057;-79
2022/08/21 10:57:02;;;;;;;7.93;2.20;;;;;;;;;;4977990;28;20106;-78
2022/08/21 10:59:44;;;;;;;10.98;2.58;;;;;;;;;;4994686;28;20473;-77
2022/08/21 11:02:16;;;;;;;8.18;2.05;;;;;;;;;;4977556;28;20058;-77
2022/08/21 11:04:54;;;;;;;8.88;1.90;;;;;;;;;;4985137;28;20051;-77
2022/08/21 11:07:41;;;;;;;4.55;1.50;;;;;;;;;;4981965;28;20701;-77
2022/08/21 11:10:30;;;;;;;7.95;1.98;;;;;;;;;;4977624;28;20056;-77
2022/08/21 11:13:11;;;;;;;7.68;1.90;;;;;;;;;;4976895;28;20079;-77
2022/08/21 11:15:59;;;;;;;10.52;2.05;;;;;;;;;;4972704;28;20051;-78
2022/08/21 11:18:34;;;;;;;6.55;1.80;;;;;;;;;;4998141;28;20059;-78
2022/08/21 11:21:08;;;;;;;9.02;2.00;;;;;;;;;;4994277;28;20054;-79
2022/08/21 11:23:42;;;;;;;7.82;1.50;;;;;;;;;;4993815;28;20054;-77
2022/08/21 11:26:15;;;;;;;8.40;1.67;;;;;;;;;;4988316;28;20047;-77
2022/08/21 11:28:52;;;;;;;6.78;1.58;;;;;;;;;;4991736;28;20057;-78
2022/08/21 11:31:29;;;;;;;7.38;2.00;;;;;;;;;;4987621;28;20074;-77
2022/08/21 11:34:18;;;;;;;7.00;1.52;;;;;;;;;;4995726;28;20050;-77
2022/08/21 11:36:58;;;;;;;5.70;1.85;;;;;;;;;;4998793;28;20047;-77
2022/08/21 11:39:38;;;;;;;8.82;2.20;;;;;;;;;;4992956;28;20051;-78
2022/08/21 11:42:24;;;;;;;9.15;1.90;;;;;;;;;;4998353;28;21082;-77
2022/08/21 11:44:51;;;;;;;5.28;1.60;;;;;;;;;;4994239;28;20051;-77
2022/08/21 11:47:55;;;;;;;6.63;1.80;;;;;;;;;;4990661;28;20133;-77
2022/08/21 11:50:30;;;;;;;11.10;2.17;;;;;;;;;;4990970;28;20063;-77
2022/08/21 11:53:13;;;;;;;11.43;1.88;;;;;;;;;;4951453;28;20110;-77
2022/08/21 11:55:49;;;;;;;9.57;1.90;;;;;;;;;;4974652;28;20057;-79
2022/08/21 11:58:32;;;;;;;9.95;2.45;;;;;;;;;;4932850;28;20047;-76
2022/08/21 12:01:08;;;;;;;6.85;1.80;;;;;;;;;;4948461;28;20044;-78
2022/08/21 12:03:37;;;;;;;8.77;2.05;;;;;;;;;;4935758;28;20055;-76
2022/08/21 12:06:08;;;;;;;7.45;2.20;;;;;;;;;;4948395;28;20847;-77
2022/08/21 12:08:40;;;;;;;12.18;2.50;;;;;;;;;;4935574;28;20063;-76
2022/08/21 12:11:10;;;;;;;7.50;2.05;;;;;;;;;;4949382;28;20052;-76
2022/08/21 12:13:39;;;;;;;8.75;2.05;;;;;;;;;;4952873;28;20868;-76
2022/08/21 12:16:16;;;;;;;10.55;1.98;;;;;;;;;;4949848;28;20060;-76
2022/08/21 12:18:43;;;;;;;11.73;2.20;;;;;;;;;;4956461;28;20062;-77
2022/08/21 12:21:22;;;;;;;9.40;1.92;;;;;;;;;;4948452;28;20062;-76
2022/08/21 12:24:00;;;;;;;7.40;1.92;;;;;;;;;;4938891;28;20510;-76
2022/08/21 12:26:49;;;;;;;9.27;2.13;;;;;;;;;;4978154;28;20054;-77
2022/08/21 12:29:23;;;;;;;7.30;2.25;;;;;;;;;;4997659;28;20066;-75
2022/08/21 12:31:54;;;;;;;11.48;1.73;;;;;;;;;;4993983;28;20047;-77
2022/08/21 12:34:23;;;;;;;7.97;2.10;;;;;;;;;;4974376;28;20835;-76
2022/08/21 12:36:57;;;;;;;12.48;1.88;;;;;;;;;;4991437;28;20091;-77
2022/08/21 12:39:26;;;;;;;6.00;1.80;;;;;;;;;;4970493;28;20062;-78
2022/08/21 12:41:59;;;;;;;7.15;2.00;;;;;;;;;;4975040;28;20089;-76
2022/08/21 12:44:36;;;;;;;8.65;2.45;;;;;;;;;;4974789;28;20058;-76
2022/08/21 12:47:05;;;;;;;9.95;2.00;;;;;;;;;;4971453;28;20055;-76
2022/08/21 12:49:37;;;;;;;8.70;2.05;;;;;;;;;;4973412;28;20051;-77
2022/08/21 12:52:14;;;;;;;8.52;1.88;;;;;;;;;;4970194;28;20052;-76
2022/08/21 12:54:43;;;;;;;7.75;2.13;;;;;;;;;;4975337;28;20063;-76
2022/08/21 12:57:24;;;;;;;9.77;1.80;;;;;;;;;;4979845;28;20051;-77
2022/08/21 12:59:58;;;;;;;6.85;1.98;;;;;;;;;;4991769;28;20049;-76
2022/08/21 13:02:31;;;;;;;10.60;2.85;;;;;;;;;;4973308;28;20102;-77
2022/08/21 13:04:58;;;;;;;8.75;1.73;;;;;;;;;;4978128;28;20048;-77
2022/08/21 13:07:28;;;;;;;8.80;2.28;;;;;;;;;;4981374;28;20629;-77
2022/08/21 13:09:59;;;;;;;9.45;2.05;;;;;;;;;;4986563;28;20055;-76
2022/08/21 13:12:27;;;;;;;11.48;1.90;;;;;;;;;;4970932;28;20415;-77
2022/08/21 13:15:00;;;;;;;8.03;1.90;;;;;;;;;;4975618;28;20055;-76
2022/08/21 13:17:31;;;;;;;10.95;1.92;;;;;;;;;;4974789;28;20138;-76
2022/08/21 13:20:18;;;;;;;11.40;2.17;;;;;;;;;;4970676;28;20141;-76
2022/08/21 13:22:46;;;;;;;8.73;1.60;;;;;;;;;;4978230;28;20062;-77
2022/08/21 13:25:15;;;;;;;7.32;1.50;;;;;;;;;;4971559;28;20497;-76
2022/08/21 13:27:43;;;;;;;6.88;1.90;;;;;;;;;;4971888;28;20047;-77
2022/08/21 13:30:10;;;;;;;6.75;1.88;;;;;;;;;;4979825;28;20073;-76
2022/08/21 13:32:46;;;;;;;8.45;1.73;;;;;;;;;;4971743;28;20166;-77
2022/08/21 13:35:21;;;;;;;8.32;1.48;;;;;;;;;;4984692;28;20085;-76
2022/08/21 13:37:50;;;;;;;5.57;1.60;;;;;;;;;;4971237;28;20047;-76
2022/08/21 13:40:20;;;;;;;6.05;1.65;;;;;;;;;;4976617;28;20055;-76
2022/08/21 13:42:48;;;;;;;6.38;1.48;;;;;;;;;;4971090;28;20061;-77
2022/08/21 13:45:18;;;;;;;6.47;1.90;;;;;;;;;;4989928;28;20054;-77
2022/08/21 13:47:47;;;;;;;5.80;1.55;;;;;;;;;;4978841;28;20058;-76
2022/08/21 13:50:17;;;;;;;6.65;1.67;;;;;;;;;;4974835;28;20051;-77
2022/08/21 13:52:49;;;;;;;7.43;1.92;;;;;;;;;;4981026;28;20105;-75
2022/08/21 13:55:17;;;;;;;6.88;1.75;;;;;;;;;;4972259;28;20058;-76
2022/08/21 13:57:44;;;;;;;7.53;1.85;;;;;;;;;;4992399;28;20516;-76
2022/08/21 14:00:12;;;;;;;6.85;1.73;;;;;;;;;;4974614;28;20990;-76
2022/08/21 14:02:41;;;;;;;7.32;2.17;;;;;;;;;;4980613;28;20509;-77
2022/08/21 14:05:15;;;;;;;9.75;1.88;;;;;;;;;;4980851;28;20047;-77
2022/08/21 14:07:43;;;;;;;9.50;1.98;;;;;;;;;;4980858;28;20402;-75
2022/08/21 14:10:21;;;;;;;8.95;1.80;;;;;;;;;;4977347;28;20172;-76
2022/08/21 14:12:51;;;;;;;4.88;1.52;;;;;;;;;;4999513;28;20058;-76
2022/08/21 14:15:19;;;;;;;7.18;1.85;;;;;;;;;;4980233;28;20060;-75
2022/08/21 14:17:46;;;;;;;7.43;2.10;;;;;;;;;;4979426;28;20054;-75
2022/08/21 14:20:26;;;;;;;9.45;2.00;;;;;;;;;;4977644;28;20051;-76
2022/08/21 14:22:53;;;;;;;8.57;1.80;;;;;;;;;;4974637;28;20062;-77
2022/08/21 14:25:20;;;;;;;4.03;1.52;;;;;;;;;;4974072;28;20052;-76
2022/08/21 14:27:51;;;;;;;9.75;1.80;;;;;;;;;;4977430;28;20050;-76
2022/08/21 14:30:20;;;;;;;8.23;1.75;;;;;;;;;;4979114;28;20055;-74
2022/08/21 14:32:50;;;;;;;8.18;1.55;;;;;;;;;;4975543;28;20066;-77
2022/08/21 14:35:19;;;;;;;4.82;1.65;;;;;;;;;;4982109;28;20525;-76
2022/08/21 14:37:50;;;;;;;8.70;1.83;;;;;;;;;;4979717;28;20047;-77
2022/08/21 14:40:18;;;;;;;6.82;1.73;;;;;;;;;;4982105;28;20047;-77
2022/08/21 14:42:49;;;;;;;6.03;1.52;;;;;;;;;;4977916;28;20049;-78
2022/08/21 14:45:19;;;;;;;4.47;1.63;;;;;;;;;;4973270;28;20059;-76
2022/08/21 14:47:51;;;;;;;6.78;1.85;;;;;;;;;;4985599;28;20058;-79
2022/08/21 14:50:19;;;;;;;4.90;1.65;;;;;;;;;;4983268;28;20106;-78
2022/08/21 14:52:46;;;;;;;7.32;1.80;;;;;;;;;;4983809;28;20043;-78
2022/08/21 14:55:16;;;;;;;9.85;1.73;;;;;;;;;;4977791;28;20167;-79
2022/08/21 14:57:45;;;;;;;6.22;1.90;;;;;;;;;;4981961;28;20055;-78
2022/08/21 15:00:14;;;;;;;4.88;1.50;;;;;;;;;;4981487;28;20465;-79